createdAt,value
2023-01-01T00:00:43.425Z,26.37
2023-01-01T00:01:43.340Z,26.36
2023-01-01T00:02:43.326Z,26.35
2023-01-01T00:03:43.359Z,26.35
2023-01-01T00:04:43.297Z,26.35
2023-01-01T00:05:43.278Z,26.33
2023-01-01T00:06:43.276Z,26.37
2023-01-01T00:07:43.277Z,26.36
2023-01-01T00:08:43.267Z,26.35
2023-01-01T00:09:43.244Z,26.33
2023-01-01T00:10:43.259Z,26.30
2023-01-01T00:11:43.224Z,26.35
2023-01-01T00:12:43.227Z,26.32
2023-01-01T00:13:43.220Z,26.30
2023-01-01T00:14:43.190Z,26.27
2023-01-01T00:15:43.188Z,26.30
2023-01-01T00:16:43.202Z,26.29
2023-01-01T00:17:43.206Z,26.32
2023-01-01T00:18:43.177Z,26.27
2023-01-01T00:19:43.151Z,26.27
2023-01-01T00:20:43.138Z,26.26
2023-01-01T00:21:43.152Z,26.23
2023-01-01T00:22:58.571Z,26.26
2023-01-01T00:23:44.126Z,26.25
2023-01-01T00:24:43.130Z,26.22
2023-01-01T00:25:43.104Z,26.23
2023-01-01T00:26:43.092Z,26.23
2023-01-01T00:27:43.116Z,26.22
2023-01-01T00:28:43.089Z,26.19
2023-01-01T00:29:43.074Z,26.20
2023-01-01T00:30:43.078Z,26.19
2023-01-01T00:31:43.067Z,26.18
2023-01-01T00:32:43.069Z,26.20
2023-01-01T00:33:44.049Z,26.18
2023-01-01T00:34:43.015Z,26.19
2023-01-01T00:35:43.012Z,26.19
2023-01-01T00:36:43.029Z,26.15
2023-01-01T00:37:46.639Z,26.15
2023-01-01T00:38:42.988Z,26.15
2023-01-01T00:39:42.976Z,26.15
2023-01-01T00:40:42.959Z,26.16
2023-01-01T00:41:42.972Z,26.13
2023-01-01T00:42:42.947Z,26.15
2023-01-01T00:43:42.967Z,26.12
2023-01-01T00:44:42.946Z,26.12
2023-01-01T00:45:42.976Z,26.12
2023-01-01T00:46:43.064Z,26.12
2023-01-01T00:47:42.896Z,26.12
2023-01-01T00:48:42.916Z,26.13
2023-01-01T00:49:42.895Z,26.12
2023-01-01T00:50:42.883Z,26.12
2023-01-01T00:51:42.868Z,26.12
2023-01-01T00:52:42.852Z,26.15
2023-01-01T00:53:42.890Z,26.15
2023-01-01T00:54:42.862Z,26.15
2023-01-01T00:55:42.838Z,26.15
2023-01-01T00:56:42.812Z,26.13
2023-01-01T00:57:42.827Z,26.15
2023-01-01T00:58:42.808Z,26.16
2023-01-01T00:59:42.813Z,26.16
2023-01-01T01:00:42.812Z,26.18
2023-01-01T01:01:42.881Z,26.20
2023-01-01T01:02:42.949Z,26.19
2023-01-01T01:03:42.767Z,26.22
2023-01-01T01:04:42.748Z,26.22
2023-01-01T01:05:42.764Z,26.22
2023-01-01T01:06:42.728Z,26.23
2023-01-01T01:07:42.728Z,26.26
2023-01-01T01:08:42.751Z,26.26
2023-01-01T01:09:42.718Z,26.26
2023-01-01T01:10:42.694Z,26.30
2023-01-01T01:11:42.696Z,26.29
2023-01-01T01:12:42.673Z,26.29
2023-01-01T01:13:42.699Z,26.30
2023-01-01T01:14:42.676Z,26.29
2023-01-01T01:15:42.655Z,26.30
2023-01-01T01:16:42.711Z,26.32
2023-01-01T01:17:42.632Z,26.32
2023-01-01T01:18:42.618Z,26.32
2023-01-01T01:19:42.644Z,26.36
2023-01-01T01:20:42.617Z,26.36
2023-01-01T01:21:42.617Z,26.37
2023-01-01T01:22:42.586Z,26.35
2023-01-01T01:23:42.580Z,26.36
2023-01-01T01:24:42.595Z,26.37
2023-01-01T01:25:42.584Z,26.36
2023-01-01T01:26:42.550Z,26.37
2023-01-01T01:27:42.586Z,26.35
2023-01-01T01:28:48.867Z,26.36
2023-01-01T01:29:43.580Z,26.37
2023-01-01T01:30:42.607Z,26.36
2023-01-01T01:31:42.519Z,26.36
2023-01-01T01:32:42.492Z,26.35
2023-01-01T01:33:42.485Z,26.35
2023-01-01T01:34:42.506Z,26.33
2023-01-01T01:35:42.504Z,26.37
2023-01-01T01:36:42.467Z,26.35
2023-01-01T01:37:42.462Z,26.36
2023-01-01T01:38:42.444Z,26.35
2023-01-01T01:39:42.445Z,26.29
2023-01-01T01:40:42.427Z,26.32
2023-01-01T01:41:42.449Z,26.30
2023-01-01T01:42:42.410Z,26.29
2023-01-01T01:43:42.417Z,26.27
2023-01-01T01:44:42.402Z,26.27
2023-01-01T01:45:42.404Z,26.29
2023-01-01T01:46:42.391Z,26.26
2023-01-01T01:47:42.378Z,26.25
2023-01-01T01:48:42.368Z,26.25
2023-01-01T01:49:42.343Z,26.23
2023-01-01T01:50:42.354Z,26.22
2023-01-01T01:51:42.354Z,26.23
2023-01-01T01:52:42.319Z,26.20
2023-01-01T01:53:42.344Z,26.20
2023-01-01T01:54:42.300Z,26.20
2023-01-01T01:55:42.318Z,26.20
2023-01-01T01:56:42.282Z,26.18
2023-01-01T01:57:42.283Z,26.19
2023-01-01T01:58:42.275Z,26.18
2023-01-01T01:59:42.251Z,26.18
2023-01-01T02:00:42.267Z,26.15
2023-01-01T02:01:42.365Z,26.15
2023-01-01T02:02:42.392Z,26.15
2023-01-01T02:03:42.252Z,26.13
2023-01-01T02:04:42.218Z,26.15
2023-01-01T02:05:42.221Z,26.13
2023-01-01T02:06:42.197Z,26.13
2023-01-01T02:07:42.186Z,26.10
2023-01-01T02:08:42.175Z,26.10
2023-01-01T02:09:42.192Z,26.09
2023-01-01T02:10:42.164Z,26.12
2023-01-01T02:11:42.153Z,26.10
2023-01-01T02:12:42.151Z,26.09
2023-01-01T02:13:42.146Z,26.10
2023-01-01T02:14:42.132Z,26.10
2023-01-01T02:15:42.256Z,26.10
2023-01-01T02:16:42.101Z,26.08
2023-01-01T02:17:42.128Z,26.09
2023-01-01T02:18:42.088Z,26.10
2023-01-01T02:19:42.108Z,26.10
2023-01-01T02:20:42.084Z,26.10
2023-01-01T02:21:42.067Z,26.10
2023-01-01T02:22:42.055Z,26.12
2023-01-01T02:23:42.047Z,26.08
2023-01-01T02:24:42.068Z,26.12
2023-01-01T02:25:42.027Z,26.12
2023-01-01T02:26:42.016Z,26.10
2023-01-01T02:27:42.026Z,26.13
2023-01-01T02:28:42.005Z,26.12
2023-01-01T02:29:42.026Z,26.16
2023-01-01T02:30:42.045Z,26.16
2023-01-01T02:31:42.083Z,26.16
2023-01-01T02:32:41.981Z,26.16
2023-01-01T02:33:41.960Z,26.16
2023-01-01T02:34:41.980Z,26.18
2023-01-01T02:35:41.941Z,26.16
2023-01-01T02:36:41.930Z,26.18
2023-01-01T02:37:41.926Z,26.20
2023-01-01T02:38:41.911Z,26.20
2023-01-01T02:39:41.908Z,26.20
2023-01-01T02:40:41.925Z,26.25
2023-01-01T02:41:41.896Z,26.25
2023-01-01T02:42:41.883Z,26.26
2023-01-01T02:43:41.875Z,26.26
2023-01-01T02:44:41.853Z,26.27
2023-01-01T02:45:41.849Z,26.29
2023-01-01T02:46:41.882Z,26.27
2023-01-01T02:47:41.837Z,26.29
2023-01-01T02:48:41.820Z,26.27
2023-01-01T02:49:41.825Z,26.29
2023-01-01T02:50:41.822Z,26.30
2023-01-01T02:51:41.837Z,26.29
2023-01-01T02:52:41.788Z,26.32
2023-01-01T02:53:41.784Z,26.32
2023-01-01T02:54:41.775Z,26.33
2023-01-01T02:55:41.772Z,26.32
2023-01-01T02:56:41.766Z,26.33
2023-01-01T02:57:41.763Z,26.32
2023-01-01T02:58:41.729Z,26.35
2023-01-01T02:59:41.725Z,26.35
2023-01-01T03:00:41.721Z,26.35
2023-01-01T03:01:41.826Z,26.35
2023-01-01T03:02:45.234Z,26.35
2023-01-01T03:03:42.736Z,26.35
2023-01-01T03:04:41.714Z,26.35
2023-01-01T03:05:41.677Z,26.36
2023-01-01T03:06:41.681Z,26.35
2023-01-01T03:07:41.685Z,26.33
2023-01-01T03:08:41.643Z,26.36
2023-01-01T03:09:41.678Z,26.36
2023-01-01T03:10:41.641Z,26.33
2023-01-01T03:11:41.618Z,26.33
2023-01-01T03:12:41.628Z,26.32
2023-01-01T03:13:41.602Z,26.32
2023-01-01T03:14:41.619Z,26.32
2023-01-01T03:15:41.604Z,26.30
2023-01-01T03:16:41.572Z,26.30
2023-01-01T03:17:41.588Z,26.29
2023-01-01T03:18:41.552Z,26.29
2023-01-01T03:19:41.544Z,26.29
2023-01-01T03:20:41.563Z,26.26
2023-01-01T03:21:41.531Z,26.27
2023-01-01T03:23:50.264Z,26.25
2023-01-01T03:24:49.606Z,26.25
2023-01-01T03:25:49.629Z,26.23
2023-01-01T03:26:49.574Z,26.23
2023-01-01T03:27:49.567Z,26.20
2023-01-01T03:28:49.577Z,26.23
2023-01-01T03:29:49.556Z,26.20
2023-01-01T03:30:49.572Z,26.22
2023-01-01T03:31:49.531Z,26.20
2023-01-01T03:32:49.508Z,26.20
2023-01-01T03:33:49.504Z,26.19
2023-01-01T03:34:49.539Z,26.16
2023-01-01T03:35:49.504Z,26.19
2023-01-01T03:36:49.486Z,26.16
2023-01-01T03:37:49.480Z,26.15
2023-01-01T03:38:49.502Z,26.13
2023-01-01T03:39:49.449Z,26.16
2023-01-01T03:40:49.457Z,26.15
2023-01-01T03:41:49.438Z,26.12
2023-01-01T03:42:49.437Z,26.13
2023-01-01T03:43:49.479Z,26.13
2023-01-01T03:44:49.440Z,26.13
2023-01-01T03:45:49.406Z,26.12
2023-01-01T03:46:49.456Z,26.13
2023-01-01T03:47:49.401Z,26.10
2023-01-01T03:48:49.389Z,26.10
2023-01-01T03:49:49.386Z,26.12
2023-01-01T03:50:49.354Z,26.10
2023-01-01T03:51:49.345Z,26.13
2023-01-01T03:52:49.338Z,26.12
2023-01-01T03:53:49.332Z,26.10
2023-01-01T03:54:53.687Z,26.15
2023-01-01T03:55:50.331Z,26.10
2023-01-01T03:56:49.312Z,26.13
2023-01-01T03:57:49.298Z,26.15
2023-01-01T03:58:49.309Z,26.15
2023-01-01T03:59:49.286Z,26.13
2023-01-01T04:00:49.301Z,26.13
2023-01-01T04:01:49.329Z,26.13
2023-01-01T04:02:49.333Z,26.15
2023-01-01T04:03:49.245Z,26.16
2023-01-01T04:04:49.262Z,26.15
2023-01-01T04:05:49.259Z,26.16
2023-01-01T04:06:49.217Z,26.18
2023-01-01T04:08:57.280Z,26.20
2023-01-01T04:09:57.272Z,26.22
2023-01-01T04:10:57.289Z,26.22
2023-01-01T04:11:57.260Z,26.25
2023-01-01T04:12:57.266Z,26.22
2023-01-01T04:13:57.230Z,26.23
2023-01-01T04:14:57.223Z,26.26
2023-01-01T04:15:57.264Z,26.27
2023-01-01T04:16:57.204Z,26.26
2023-01-01T04:17:57.278Z,26.27
2023-01-01T04:18:57.192Z,26.29
2023-01-01T04:19:57.189Z,26.29
2023-01-01T04:20:57.195Z,26.27
2023-01-01T04:21:57.177Z,26.30
2023-01-01T04:22:57.162Z,26.30
2023-01-01T04:23:57.147Z,26.32
2023-01-01T04:24:57.166Z,26.32
2023-01-01T04:25:57.129Z,26.30
2023-01-01T04:26:57.155Z,26.33
2023-01-01T04:27:57.131Z,26.30
2023-01-01T04:28:57.096Z,26.30
2023-01-01T04:29:57.095Z,26.32
2023-01-01T04:32:05.161Z,26.33
2023-01-01T04:33:05.161Z,26.33
2023-01-01T04:34:05.275Z,26.30
2023-01-01T04:35:05.147Z,26.35
2023-01-01T04:36:05.125Z,26.33
2023-01-01T04:37:11.281Z,26.33
2023-01-01T04:38:06.111Z,26.35
2023-01-01T04:39:05.105Z,26.32
2023-01-01T04:40:05.194Z,26.33
2023-01-01T04:41:05.074Z,26.32
2023-01-01T04:42:05.096Z,26.33
2023-01-01T04:43:05.080Z,26.32
2023-01-01T04:44:05.063Z,26.29
2023-01-01T04:45:05.047Z,26.27
2023-01-01T04:46:05.076Z,26.27
2023-01-01T04:47:05.049Z,26.29
2023-01-01T04:48:05.065Z,26.26
2023-01-01T04:49:05.002Z,26.23
2023-01-01T04:50:05.009Z,26.26
2023-01-01T04:51:05.005Z,26.25
2023-01-01T04:52:05.007Z,26.26
2023-01-01T04:53:04.996Z,26.23
2023-01-01T04:54:05.057Z,26.22
2023-01-01T04:55:04.969Z,26.23
2023-01-01T04:56:04.951Z,26.20
2023-01-01T04:57:04.976Z,26.22
2023-01-01T04:58:04.928Z,26.20
2023-01-01T04:59:04.921Z,26.22
2023-01-01T05:00:04.956Z,26.16
2023-01-01T05:01:05.004Z,26.20
2023-01-01T05:02:04.952Z,26.20
2023-01-01T05:03:04.933Z,26.19
2023-01-01T05:04:05.025Z,26.18
2023-01-01T05:05:04.927Z,26.16
2023-01-01T05:06:04.869Z,26.16
2023-01-01T05:07:04.867Z,26.16
2023-01-01T05:08:04.855Z,26.16
2023-01-01T05:09:04.983Z,26.15
2023-01-01T05:10:04.858Z,26.15
2023-01-01T05:11:04.824Z,26.15
2023-01-01T05:12:04.815Z,26.13
2023-01-01T05:13:04.800Z,26.13
2023-01-01T05:14:04.804Z,26.13
2023-01-01T05:15:04.791Z,26.12
2023-01-01T05:16:04.864Z,26.10
2023-01-01T05:17:04.782Z,26.12
2023-01-01T05:18:04.759Z,26.10
2023-01-01T05:19:04.794Z,26.12
2023-01-01T05:20:04.757Z,26.10
2023-01-01T05:21:04.764Z,26.12
2023-01-01T05:22:10.411Z,26.10
2023-01-01T05:23:05.713Z,26.09
2023-01-01T05:24:04.815Z,26.10
2023-01-01T05:25:04.700Z,26.12
2023-01-01T05:26:04.697Z,26.12
2023-01-01T05:27:04.713Z,26.10
2023-01-01T05:28:04.674Z,26.13
2023-01-01T05:29:06.793Z,26.13
2023-01-01T05:30:05.667Z,26.12
2023-01-01T05:31:04.759Z,26.12
2023-01-01T05:32:04.715Z,26.12
2023-01-01T05:33:04.639Z,26.12
2023-01-01T05:35:12.707Z,26.12
2023-01-01T05:36:12.695Z,26.16
2023-01-01T05:37:12.711Z,26.18
2023-01-01T05:38:12.662Z,26.16
2023-01-01T05:39:12.698Z,26.16
2023-01-01T05:40:12.651Z,26.20
2023-01-01T05:41:12.654Z,26.19
2023-01-01T05:42:12.641Z,26.22
2023-01-01T05:43:12.668Z,26.22
2023-01-01T05:44:12.623Z,26.23
2023-01-01T05:45:12.609Z,26.22
2023-01-01T05:46:12.659Z,26.23
2023-01-01T05:47:12.610Z,26.26
2023-01-01T05:48:12.580Z,26.26
2023-01-01T05:49:12.616Z,26.27
2023-01-01T05:50:13.613Z,26.27
2023-01-01T05:51:12.553Z,26.29
2023-01-01T05:52:12.554Z,26.29
2023-01-01T05:53:12.531Z,26.29
2023-01-01T05:55:20.629Z,26.29
2023-01-01T05:56:20.678Z,26.32
2023-01-01T05:57:20.608Z,26.32
2023-01-01T05:58:20.636Z,26.32
2023-01-01T05:59:20.613Z,26.35
2023-01-01T06:00:20.603Z,26.32
2023-01-01T06:01:20.594Z,26.33
2023-01-01T06:02:20.596Z,26.33
2023-01-01T06:03:20.543Z,26.33
2023-01-01T06:04:20.602Z,26.33
2023-01-01T06:05:20.561Z,26.33
2023-01-01T06:06:20.527Z,26.33
2023-01-01T06:07:20.512Z,26.30
2023-01-01T06:08:20.498Z,26.30
2023-01-01T06:09:20.497Z,26.32
2023-01-01T06:10:20.501Z,26.30
2023-01-01T06:11:20.484Z,26.30
2023-01-01T06:12:20.493Z,26.30
2023-01-01T06:13:20.454Z,26.29
2023-01-01T06:14:20.470Z,26.27
2023-01-01T06:15:20.440Z,26.30
2023-01-01T06:16:20.467Z,26.30
2023-01-01T06:17:20.443Z,26.29
2023-01-01T06:18:20.416Z,26.30
2023-01-01T06:19:20.434Z,26.27
2023-01-01T06:20:20.409Z,26.26
2023-01-01T06:21:20.411Z,26.25
2023-01-01T06:22:20.403Z,26.27
2023-01-01T06:23:20.366Z,26.25
2023-01-01T06:24:20.367Z,26.27
2023-01-01T06:25:20.453Z,26.26
2023-01-01T06:26:20.346Z,26.25
2023-01-01T06:27:20.356Z,26.25
2023-01-01T06:28:20.325Z,26.23
2023-01-01T06:29:20.345Z,26.23
2023-01-01T06:30:20.300Z,26.20
2023-01-01T06:31:20.414Z,26.20
2023-01-01T06:32:20.287Z,26.19
2023-01-01T06:33:20.332Z,26.20
2023-01-01T06:34:20.302Z,26.19
2023-01-01T06:35:20.267Z,26.18
2023-01-01T06:36:20.293Z,26.18
2023-01-01T06:37:20.270Z,26.19
2023-01-01T06:38:20.234Z,26.16
2023-01-01T06:39:20.238Z,26.13
2023-01-01T06:40:20.224Z,26.15
2023-01-01T06:41:20.228Z,26.13
2023-01-01T06:42:20.206Z,26.12
2023-01-01T06:43:20.201Z,26.12
2023-01-01T06:44:20.181Z,26.12
2023-01-01T06:45:20.176Z,26.12
2023-01-01T06:46:20.241Z,26.12
2023-01-01T06:47:20.159Z,26.08
2023-01-01T06:48:20.155Z,26.09
2023-01-01T06:49:20.142Z,26.10
2023-01-01T06:50:20.143Z,26.10
2023-01-01T06:51:20.145Z,26.10
2023-01-01T06:52:20.107Z,26.10
2023-01-01T06:53:20.109Z,26.08
2023-01-01T06:54:20.111Z,26.10
2023-01-01T06:55:20.101Z,26.06
2023-01-01T06:56:20.101Z,26.10
2023-01-01T06:57:20.072Z,26.08
2023-01-01T06:58:20.076Z,26.12
2023-01-01T06:59:20.039Z,26.09
2023-01-01T07:00:20.040Z,26.10
2023-01-01T07:01:20.172Z,26.12
2023-01-01T07:02:20.308Z,26.12
2023-01-01T07:03:20.102Z,26.13
2023-01-01T07:04:19.998Z,26.13
2023-01-01T07:05:20.031Z,26.13
2023-01-01T07:06:20.077Z,26.15
2023-01-01T07:07:19.979Z,26.18
2023-01-01T07:08:19.963Z,26.18
2023-01-01T07:09:19.970Z,26.19
2023-01-01T07:10:19.949Z,26.19
2023-01-01T07:11:19.956Z,26.19
2023-01-01T07:12:19.926Z,26.19
2023-01-01T07:13:19.914Z,26.23
2023-01-01T07:14:20.001Z,26.22
2023-01-01T07:15:19.903Z,26.23
2023-01-01T07:16:19.984Z,26.23
2023-01-01T07:17:19.887Z,26.26
2023-01-01T07:18:19.866Z,26.25
2023-01-01T07:19:19.897Z,26.26
2023-01-01T07:20:19.870Z,26.26
2023-01-01T07:21:23.505Z,26.26
2023-01-01T07:22:20.847Z,26.27
2023-01-01T07:23:19.843Z,26.27
2023-01-01T07:24:19.838Z,26.29
2023-01-01T07:25:19.831Z,26.27
2023-01-01T07:26:19.828Z,26.27
2023-01-01T07:27:19.801Z,26.30
2023-01-01T07:28:19.799Z,26.30
2023-01-01T07:29:19.820Z,26.29
2023-01-01T07:30:19.768Z,26.32
2023-01-01T07:31:19.818Z,26.27
2023-01-01T07:32:19.753Z,26.27
2023-01-01T07:33:19.769Z,26.29
2023-01-01T07:34:19.758Z,26.30
2023-01-01T07:35:19.757Z,26.29
2023-01-01T07:36:19.719Z,26.29
2023-01-01T07:37:19.709Z,26.32
2023-01-01T07:38:19.715Z,26.30
2023-01-01T07:39:19.731Z,26.30
2023-01-01T07:40:19.692Z,26.29
2023-01-01T07:41:19.695Z,26.29
2023-01-01T07:42:19.663Z,26.27
2023-01-01T07:43:19.658Z,26.29
2023-01-01T07:44:19.669Z,26.26
2023-01-01T07:45:19.631Z,26.26
2023-01-01T07:46:19.710Z,26.27
2023-01-01T07:47:19.659Z,26.25
2023-01-01T07:48:19.649Z,26.23
2023-01-01T07:49:19.598Z,26.26
2023-01-01T07:50:19.632Z,26.22
2023-01-01T07:51:19.586Z,26.23
2023-01-01T07:52:19.590Z,26.25
2023-01-01T07:53:19.587Z,26.23
2023-01-01T07:54:19.560Z,26.25
2023-01-01T07:55:19.560Z,26.23
2023-01-01T07:56:19.576Z,26.23
2023-01-01T07:57:19.536Z,26.23
2023-01-01T07:58:19.532Z,26.23
2023-01-01T07:59:20.776Z,26.22
2023-01-01T08:00:19.528Z,26.19
2023-01-01T08:01:19.615Z,26.20
2023-01-01T08:02:19.609Z,26.19
2023-01-01T08:03:19.555Z,26.19
2023-01-01T08:04:19.467Z,26.19
2023-01-01T08:05:26.043Z,26.18
2023-01-01T08:06:20.627Z,26.18
2023-01-01T08:07:19.461Z,26.16
2023-01-01T08:08:19.433Z,26.18
2023-01-01T08:09:19.432Z,26.16
2023-01-01T08:10:19.420Z,26.19
2023-01-01T08:11:19.438Z,26.18
2023-01-01T08:12:19.413Z,26.18
2023-01-01T08:13:19.387Z,26.18
2023-01-01T08:14:19.390Z,26.16
2023-01-01T08:15:19.393Z,26.18
2023-01-01T08:16:19.406Z,26.15
2023-01-01T08:17:19.386Z,26.18
2023-01-01T08:18:19.351Z,26.18
2023-01-01T08:19:19.338Z,26.18
2023-01-01T08:20:19.361Z,26.19
2023-01-01T08:21:19.334Z,26.18
2023-01-01T08:22:19.321Z,26.16
2023-01-01T08:23:19.300Z,26.18
2023-01-01T08:24:19.290Z,26.19
2023-01-01T08:25:19.322Z,26.20
2023-01-01T08:26:19.293Z,26.20
2023-01-01T08:27:19.285Z,26.19
2023-01-01T08:28:19.270Z,26.20
2023-01-01T08:29:19.304Z,26.25
2023-01-01T08:30:19.252Z,26.23
2023-01-01T08:31:19.299Z,26.23
2023-01-01T08:32:19.215Z,26.23
2023-01-01T08:33:19.213Z,26.25
2023-01-01T08:34:19.211Z,26.25
2023-01-01T08:35:19.212Z,26.26
2023-01-01T08:36:19.190Z,26.27
2023-01-01T08:37:19.175Z,26.27
2023-01-01T08:38:19.179Z,26.29
2023-01-01T08:39:19.180Z,26.29
2023-01-01T08:40:19.150Z,26.30
2023-01-01T08:41:19.147Z,26.30
2023-01-01T08:42:19.126Z,26.30
2023-01-01T08:43:19.124Z,26.30
2023-01-01T08:44:19.144Z,26.32
2023-01-01T08:45:19.110Z,26.35
2023-01-01T08:46:19.133Z,26.32
2023-01-01T08:47:19.088Z,26.35
2023-01-01T08:48:19.082Z,26.36
2023-01-01T08:49:19.101Z,26.35
2023-01-01T08:50:19.076Z,26.36
2023-01-01T08:51:19.050Z,26.37
2023-01-01T08:52:19.040Z,26.37
2023-01-01T08:53:19.031Z,26.36
2023-01-01T08:54:19.038Z,26.35
2023-01-01T08:55:19.030Z,26.37
2023-01-01T08:56:19.034Z,26.39
2023-01-01T08:57:19.012Z,26.42
2023-01-01T08:58:18.995Z,26.43
2023-01-01T08:59:18.985Z,26.43
2023-01-01T09:00:18.988Z,26.44
2023-01-01T09:01:19.159Z,26.47
2023-01-01T09:02:19.152Z,26.47
2023-01-01T09:03:19.009Z,26.50
2023-01-01T09:04:18.927Z,26.53
2023-01-01T09:05:18.945Z,26.55
2023-01-01T09:06:18.929Z,26.57
2023-01-01T09:07:18.923Z,26.60
2023-01-01T09:08:18.898Z,26.58
2023-01-01T09:09:19.904Z,26.61
2023-01-01T09:10:18.880Z,26.65
2023-01-01T09:11:18.884Z,26.64
2023-01-01T09:12:18.891Z,26.64
2023-01-01T09:13:18.856Z,26.65
2023-01-01T09:14:18.876Z,26.65
2023-01-01T09:15:18.834Z,26.65
2023-01-01T09:16:18.908Z,26.65
2023-01-01T09:17:18.833Z,26.63
2023-01-01T09:18:18.808Z,26.61
2023-01-01T09:19:18.798Z,26.60
2023-01-01T09:20:18.793Z,26.57
2023-01-01T09:21:18.783Z,26.54
2023-01-01T09:22:18.798Z,26.51
2023-01-01T09:23:18.775Z,26.50
2023-01-01T09:24:18.763Z,26.50
2023-01-01T09:25:18.749Z,26.48
2023-01-01T09:26:18.749Z,26.48
2023-01-01T09:27:18.757Z,26.47
2023-01-01T09:28:23.512Z,26.46
2023-01-01T09:29:19.738Z,26.44
2023-01-01T09:30:18.751Z,26.46
2023-01-01T09:31:18.723Z,26.42
2023-01-01T09:32:18.725Z,26.43
2023-01-01T09:33:18.695Z,26.42
2023-01-01T09:34:18.668Z,26.42
2023-01-01T09:35:18.663Z,26.42
2023-01-01T09:36:18.661Z,26.40
2023-01-01T09:37:18.677Z,26.40
2023-01-01T09:38:18.633Z,26.42
2023-01-01T09:39:18.631Z,26.42
2023-01-01T09:40:18.614Z,26.40
2023-01-01T09:41:18.635Z,26.40
2023-01-01T09:42:18.613Z,26.42
2023-01-01T09:43:18.583Z,26.40
2023-01-01T09:44:18.597Z,26.42
2023-01-01T09:45:18.566Z,26.39
2023-01-01T09:46:18.587Z,26.42
2023-01-01T09:47:18.572Z,26.40
2023-01-01T09:48:18.576Z,26.39
2023-01-01T09:49:18.538Z,26.37
2023-01-01T09:50:18.564Z,26.40
2023-01-01T09:51:18.520Z,26.40
2023-01-01T09:52:18.517Z,26.40
2023-01-01T09:53:18.501Z,26.40
2023-01-01T09:54:18.511Z,26.37
2023-01-01T09:55:18.500Z,26.40
2023-01-01T09:56:18.478Z,26.42
2023-01-01T09:57:20.362Z,26.44
2023-01-01T09:58:18.484Z,26.42
2023-01-01T09:59:18.456Z,26.43
2023-01-01T10:00:18.443Z,26.42
2023-01-01T10:01:18.515Z,26.43
2023-01-01T10:02:18.467Z,26.42
2023-01-01T10:03:18.464Z,26.46
2023-01-01T10:04:18.484Z,26.42
2023-01-01T10:05:18.393Z,26.46
2023-01-01T10:06:18.404Z,26.46
2023-01-01T10:07:18.373Z,26.46
2023-01-01T10:08:23.160Z,26.44
2023-01-01T10:09:19.368Z,26.46
2023-01-01T10:10:18.351Z,26.46
2023-01-01T10:11:18.367Z,26.48
2023-01-01T10:12:18.331Z,26.48
2023-01-01T10:13:18.337Z,26.50
2023-01-01T10:14:18.330Z,26.48
2023-01-01T10:15:18.327Z,26.50
2023-01-01T10:16:24.026Z,26.50
2023-01-01T10:17:19.282Z,26.50
2023-01-01T10:18:18.295Z,26.53
2023-01-01T10:19:18.290Z,26.53
2023-01-01T10:20:18.278Z,26.53
2023-01-01T10:21:18.256Z,26.53
2023-01-01T10:22:18.252Z,26.53
2023-01-01T10:23:18.233Z,26.53
2023-01-01T10:24:18.236Z,26.51
2023-01-01T10:25:18.234Z,26.55
2023-01-01T10:26:18.211Z,26.53
2023-01-01T10:27:18.192Z,26.55
2023-01-01T10:28:18.192Z,26.53
2023-01-01T10:29:18.184Z,26.55
2023-01-01T10:30:18.196Z,26.57
2023-01-01T10:31:18.230Z,26.57
2023-01-01T10:32:18.149Z,26.57
2023-01-01T10:33:18.143Z,26.55
2023-01-01T10:34:18.174Z,26.54
2023-01-01T10:35:18.152Z,26.58
2023-01-01T10:36:18.119Z,26.58
2023-01-01T10:37:18.108Z,26.58
2023-01-01T10:38:18.100Z,26.57
2023-01-01T10:39:18.109Z,26.58
2023-01-01T10:40:18.105Z,26.57
2023-01-01T10:41:20.179Z,26.58
2023-01-01T10:42:18.067Z,26.57
2023-01-01T10:43:18.057Z,26.57
2023-01-01T10:44:18.065Z,26.57
2023-01-01T10:45:18.053Z,26.57
2023-01-01T10:46:18.100Z,26.55
2023-01-01T10:47:18.022Z,26.55
2023-01-01T10:48:18.035Z,26.60
2023-01-01T10:49:17.999Z,26.60
2023-01-01T10:50:17.995Z,26.57
2023-01-01T10:51:18.004Z,26.57
2023-01-01T10:52:18.036Z,26.55
2023-01-01T10:53:18.083Z,26.58
2023-01-01T10:54:18.135Z,26.57
2023-01-01T10:55:18.209Z,26.57
2023-01-01T10:56:18.247Z,26.57
2023-01-01T10:57:18.312Z,26.58
2023-01-01T10:58:18.341Z,26.57
2023-01-01T10:59:18.389Z,26.58
2023-01-01T11:00:18.436Z,26.55
2023-01-01T11:01:18.619Z,26.58
2023-01-01T11:02:18.772Z,26.58
2023-01-01T11:03:18.678Z,26.60
2023-01-01T11:04:18.652Z,26.60
2023-01-01T11:05:22.083Z,26.60
2023-01-01T11:06:18.677Z,26.60
2023-01-01T11:07:18.688Z,26.58
2023-01-01T11:08:18.694Z,26.61
2023-01-01T11:09:18.653Z,26.60
2023-01-01T11:10:18.641Z,26.61
2023-01-01T11:11:18.639Z,26.64
2023-01-01T11:12:46.031Z,26.64
2023-01-01T11:13:19.644Z,26.61
2023-01-01T11:14:18.608Z,26.63
2023-01-01T11:15:18.612Z,26.64
2023-01-01T11:16:18.674Z,26.64
2023-01-01T11:17:18.581Z,26.65
2023-01-01T11:18:18.576Z,26.64
2023-01-01T11:19:18.584Z,26.63
2023-01-01T11:20:18.559Z,26.65
2023-01-01T11:21:18.542Z,26.63
2023-01-01T11:22:18.560Z,26.64
2023-01-01T11:23:18.540Z,26.64
2023-01-01T11:24:18.582Z,26.65
2023-01-01T11:25:18.520Z,26.67
2023-01-01T11:26:18.527Z,26.67
2023-01-01T11:27:18.495Z,26.67
2023-01-01T11:28:18.491Z,26.65
2023-01-01T11:29:18.603Z,26.67
2023-01-01T11:30:18.479Z,26.68
2023-01-01T11:31:18.562Z,26.68
2023-01-01T11:32:18.452Z,26.65
2023-01-01T11:33:18.471Z,26.67
2023-01-01T11:34:18.432Z,26.70
2023-01-01T11:35:18.432Z,26.70
2023-01-01T11:36:18.408Z,26.68
2023-01-01T11:37:18.405Z,26.71
2023-01-01T11:38:18.478Z,26.70
2023-01-01T11:39:18.393Z,26.68
2023-01-01T11:40:18.478Z,26.67
2023-01-01T11:41:18.371Z,26.71
2023-01-01T11:42:18.360Z,26.73
2023-01-01T11:43:18.356Z,26.71
2023-01-01T11:44:18.340Z,26.73
2023-01-01T11:45:18.362Z,26.73
2023-01-01T11:46:18.371Z,26.74
2023-01-01T11:47:18.318Z,26.74
2023-01-01T11:48:18.310Z,26.74
2023-01-01T11:49:18.295Z,26.74
2023-01-01T11:50:18.363Z,26.74
2023-01-01T11:51:18.324Z,26.74
2023-01-01T11:52:18.267Z,26.78
2023-01-01T11:53:18.325Z,26.75
2023-01-01T11:54:18.277Z,26.77
2023-01-01T11:55:18.280Z,26.77
2023-01-01T11:56:18.231Z,26.75
2023-01-01T11:57:18.222Z,26.78
2023-01-01T11:58:19.987Z,26.80
2023-01-01T11:59:18.216Z,26.80
2023-01-01T12:00:18.280Z,26.81
2023-01-01T12:01:18.206Z,26.81
2023-01-01T12:02:18.198Z,26.78
2023-01-01T12:03:18.279Z,26.81
2023-01-01T12:04:18.250Z,26.84
2023-01-01T12:05:18.169Z,26.85
2023-01-01T12:06:18.175Z,26.82
2023-01-01T12:07:18.140Z,26.84
2023-01-01T12:08:18.154Z,26.85
2023-01-01T12:09:19.082Z,26.87
2023-01-01T12:10:18.172Z,26.87
2023-01-01T12:11:18.109Z,26.90
2023-01-01T12:12:18.094Z,26.88
2023-01-01T12:13:18.098Z,26.92
2023-01-01T12:14:18.093Z,26.91
2023-01-01T12:15:18.096Z,26.91
2023-01-01T12:16:18.164Z,26.95
2023-01-01T12:17:18.055Z,26.95
2023-01-01T12:18:18.033Z,26.94
2023-01-01T12:19:18.031Z,26.97
2023-01-01T12:20:18.059Z,26.94
2023-01-01T12:21:18.039Z,26.92
2023-01-01T12:22:18.011Z,26.94
2023-01-01T12:23:18.028Z,26.95
2023-01-01T12:24:17.996Z,26.95
2023-01-01T12:25:17.983Z,26.95
2023-01-01T12:26:17.981Z,26.97
2023-01-01T12:27:17.978Z,26.97
2023-01-01T12:28:17.970Z,26.97
2023-01-01T12:29:17.951Z,26.97
2023-01-01T12:30:17.939Z,26.98
2023-01-01T12:31:17.943Z,26.97
2023-01-01T12:32:17.912Z,26.99
2023-01-01T12:33:17.936Z,27.01
2023-01-01T12:34:17.911Z,27.02
2023-01-01T12:35:17.889Z,27.01
2023-01-01T12:36:17.881Z,27.06
2023-01-01T12:37:17.876Z,27.05
2023-01-01T12:38:17.870Z,27.06
2023-01-01T12:39:17.869Z,27.05
2023-01-01T12:40:22.777Z,27.06
2023-01-01T12:41:18.863Z,27.05
2023-01-01T12:42:17.823Z,27.06
2023-01-01T12:43:17.853Z,27.09
2023-01-01T12:44:17.837Z,27.08
2023-01-01T12:45:17.812Z,27.08
2023-01-01T12:46:17.861Z,27.10
2023-01-01T12:47:17.785Z,27.12
2023-01-01T12:48:17.832Z,27.10
2023-01-01T12:49:17.761Z,27.13
2023-01-01T12:50:17.797Z,27.13
2023-01-01T12:51:17.756Z,27.13
2023-01-01T12:52:17.746Z,27.16
2023-01-01T12:53:17.726Z,27.15
2023-01-01T12:54:17.735Z,27.16
2023-01-01T12:55:17.707Z,27.16
2023-01-01T12:56:22.787Z,27.15
2023-01-01T12:57:18.705Z,27.19
2023-01-01T12:58:17.691Z,27.18